createdAt,value
2023-02-14T00:11:58.989Z,14.9
2023-02-14T00:27:09.396Z,14.7
2023-02-14T00:42:18.857Z,17.1
2023-02-14T00:57:28.106Z,16.7
2023-02-14T01:12:37.605Z,18
2023-02-14T01:27:47.263Z,17
2023-02-14T01:42:56.955Z,18
2023-02-14T01:58:06.185Z,17.8
2023-02-14T02:13:16.146Z,17.2
2023-02-14T02:28:25.570Z,17.1
2023-02-14T02:43:34.738Z,17.5
2023-02-14T02:59:50.859Z,21.7
2023-02-14T03:15:01.388Z,16.4
2023-02-14T03:30:10.583Z,17
2023-02-14T03:45:22.806Z,17.5
2023-02-14T04:00:33.520Z,17.2
2023-02-14T04:15:43.285Z,15.4
2023-02-14T04:30:52.509Z,17.4
2023-02-14T04:46:01.590Z,16
2023-02-14T05:01:10.845Z,16.9
2023-02-14T05:16:21.115Z,15.7
2023-02-14T05:31:31.011Z,14.9
2023-02-14T05:46:40.695Z,12.5
2023-02-14T06:01:49.634Z,13.1
2023-02-14T06:16:58.869Z,12.4
2023-02-14T06:32:09.650Z,11.5
2023-02-14T06:47:19.811Z,10.7
2023-02-14T07:02:29.617Z,11.4
2023-02-14T07:17:38.667Z,10.3
2023-02-14T07:32:48.382Z,12.9
2023-02-14T07:47:57.686Z,12.8
2023-02-14T08:03:10.127Z,12.7
2023-02-14T08:18:19.560Z,13.2
2023-02-14T08:33:29.128Z,13.3
2023-02-14T08:48:40.066Z,14
2023-02-14T09:03:51.157Z,15
2023-02-14T09:19:01.581Z,15.4
2023-02-14T09:34:11.377Z,13.9
2023-02-14T09:49:20.824Z,15.9
2023-02-14T10:04:31.442Z,14.9
2023-02-14T10:19:40.951Z,15.5
2023-02-14T10:34:50.762Z,17.5
2023-02-14T10:50:00.712Z,20.3
2023-02-14T11:05:10.497Z,16.8
2023-02-14T11:20:20.961Z,14.8
2023-02-14T11:35:30.409Z,13.3
2023-02-14T11:50:40.913Z,13.3
2023-02-14T12:05:50.751Z,13.2
2023-02-14T12:21:03.244Z,12.3
2023-02-14T12:36:14.562Z,10.4
2023-02-14T12:51:23.598Z,9.8
2023-02-14T13:06:33.385Z,8.5
2023-02-14T13:21:42.990Z,9.4
2023-02-14T13:36:55.053Z,7
2023-02-14T13:52:10.251Z,6.5
2023-02-14T14:07:19.519Z,5.4
2023-02-14T14:22:27.852Z,5
2023-02-14T14:37:36.272Z,3.7
2023-02-14T14:52:44.553Z,4.4
2023-02-14T15:07:53.869Z,5.4
2023-02-14T15:23:03.017Z,5.8
2023-02-14T15:38:11.981Z,7.2
2023-02-14T15:53:21.571Z,7.5
2023-02-14T16:08:31.124Z,9.9
2023-02-14T16:23:40.600Z,10
2023-02-14T16:38:49.743Z,10.1
2023-02-14T16:53:59.544Z,9.8
2023-02-14T17:09:10.505Z,11
2023-02-14T17:24:19.906Z,10.6
2023-02-14T17:39:29.750Z,11.2
2023-02-14T17:54:39.018Z,11.4
2023-02-14T18:09:48.931Z,13.7
2023-02-14T18:24:57.979Z,13.7
2023-02-14T18:40:07.089Z,15.5
2023-02-14T18:55:17.185Z,15.1
2023-02-14T19:10:26.478Z,15.9
2023-02-14T19:25:35.932Z,20.4
2023-02-14T19:40:45.395Z,21.1
2023-02-14T19:55:54.469Z,21.5
2023-02-14T20:11:04.316Z,26.8
2023-02-14T20:26:13.439Z,36.9
2023-02-14T20:41:23.143Z,25.4
2023-02-14T20:57:22.288Z,25.6
2023-02-14T21:12:32.613Z,21.9
2023-02-14T21:27:42.242Z,20.9
2023-02-14T21:42:51.830Z,19.7
2023-02-14T21:58:01.414Z,19
2023-02-14T22:13:11.016Z,19.9
2023-02-14T22:28:20.562Z,18.1
2023-02-14T22:43:30.970Z,18.2
2023-02-14T22:58:46.793Z,20
2023-02-14T23:13:56.475Z,17.6
2023-02-14T23:29:06.204Z,17.7
2023-02-14T23:44:15.508Z,17.1
2023-02-14T23:59:24.588Z,16.8
